sensor_id;sensor_type;location;lat;lon;timestamp;P1;durP1;ratioP1;P2;durP2;ratioP2
44536;SDS011;30245;51.966;6.292;2024-03-22T00:00:32;29.98;;;20.08;;
44536;SDS011;30245;51.966;6.292;2024-03-22T00:02:57;33.13;;;19.60;;
44536;SDS011;30245;51.966;6.292;2024-03-22T00:05:23;30.10;;;19.13;;
44536;SDS011;30245;51.966;6.292;2024-03-22T00:07:49;29.75;;;19.95;;
44536;SDS011;30245;51.966;6.292;2024-03-22T00:10:14;31.80;;;22.45;;
44536;SDS011;30245;51.966;6.292;2024-03-22T00:12:40;34.65;;;21.77;;
44536;SDS011;30245;51.966;6.292;2024-03-22T00:15:05;33.22;;;23.20;;
44536;SDS011;30245;51.966;6.292;2024-03-22T00:17:31;30.23;;;20.42;;
44536;SDS011;30245;51.966;6.292;2024-03-22T00:19:58;29.83;;;19.95;;
44536;SDS011;30245;51.966;6.292;2024-03-22T00:22:24;32.33;;;20.15;;
44536;SDS011;30245;51.966;6.292;2024-03-22T00:24:50;31.13;;;19.30;;
44536;SDS011;30245;51.966;6.292;2024-03-22T00:27:16;31.75;;;20.15;;
44536;SDS011;30245;51.966;6.292;2024-03-22T00:29:41;31.45;;;20.60;;
44536;SDS011;30245;51.966;6.292;2024-03-22T00:32:07;31.90;;;18.77;;
44536;SDS011;30245;51.966;6.292;2024-03-22T00:34:33;31.08;;;20.08;;
44536;SDS011;30245;51.966;6.292;2024-03-22T00:37:01;37.13;;;22.50;;
44536;SDS011;30245;51.966;6.292;2024-03-22T00:39:27;33.42;;;22.00;;
44536;SDS011;30245;51.966;6.292;2024-03-22T00:41:52;33.30;;;20.55;;
44536;SDS011;30245;51.966;6.292;2024-03-22T00:44:18;32.45;;;19.80;;
44536;SDS011;30245;51.966;6.292;2024-03-22T00:46:43;35.78;;;22.40;;
44536;SDS011;30245;51.966;6.292;2024-03-22T00:49:09;32.20;;;20.80;;
44536;SDS011;30245;51.966;6.292;2024-03-22T00:51:34;37.17;;;23.52;;
44536;SDS011;30245;51.966;6.292;2024-03-22T00:54:00;29.50;;;19.85;;
44536;SDS011;30245;51.966;6.292;2024-03-22T00:56:25;37.25;;;24.05;;
44536;SDS011;30245;51.966;6.292;2024-03-22T00:58:51;32.10;;;22.05;;
44536;SDS011;30245;51.966;6.292;2024-03-22T01:01:17;36.75;;;21.48;;
44536;SDS011;30245;51.966;6.292;2024-03-22T01:03:42;35.95;;;22.08;;
44536;SDS011;30245;51.966;6.292;2024-03-22T01:06:08;43.47;;;23.60;;
44536;SDS011;30245;51.966;6.292;2024-03-22T01:08:33;38.35;;;23.45;;
44536;SDS011;30245;51.966;6.292;2024-03-22T01:10:59;33.38;;;20.73;;
44536;SDS011;30245;51.966;6.292;2024-03-22T01:13:24;35.83;;;23.02;;
44536;SDS011;30245;51.966;6.292;2024-03-22T01:15:50;35.00;;;21.88;;
44536;SDS011;30245;51.966;6.292;2024-03-22T01:18:15;33.67;;;21.25;;
44536;SDS011;30245;51.966;6.292;2024-03-22T01:20:41;39.10;;;23.52;;
44536;SDS011;30245;51.966;6.292;2024-03-22T01:23:07;33.75;;;21.85;;
44536;SDS011;30245;51.966;6.292;2024-03-22T01:25:33;40.25;;;25.90;;
44536;SDS011;30245;51.966;6.292;2024-03-22T01:27:58;36.83;;;25.08;;
44536;SDS011;30245;51.966;6.292;2024-03-22T01:30:24;40.47;;;24.90;;
44536;SDS011;30245;51.966;6.292;2024-03-22T01:32:53;39.05;;;23.10;;
44536;SDS011;30245;51.966;6.292;2024-03-22T01:35:19;42.53;;;25.17;;
44536;SDS011;30245;51.966;6.292;2024-03-22T01:37:45;36.55;;;21.23;;
44536;SDS011;30245;51.966;6.292;2024-03-22T01:40:11;33.70;;;21.05;;
44536;SDS011;30245;51.966;6.292;2024-03-22T01:42:37;33.03;;;21.63;;
44536;SDS011;30245;51.966;6.292;2024-03-22T01:45:03;39.85;;;26.33;;
44536;SDS011;30245;51.966;6.292;2024-03-22T01:47:29;41.17;;;24.65;;
44536;SDS011;30245;51.966;6.292;2024-03-22T01:49:55;41.90;;;25.02;;
44536;SDS011;30245;51.966;6.292;2024-03-22T01:52:21;39.17;;;22.08;;
44536;SDS011;30245;51.966;6.292;2024-03-22T01:54:46;32.95;;;21.80;;
44536;SDS011;30245;51.966;6.292;2024-03-22T01:57:12;39.10;;;23.25;;
44536;SDS011;30245;51.966;6.292;2024-03-22T01:59:38;38.10;;;25.15;;
44536;SDS011;30245;51.966;6.292;2024-03-22T02:02:04;35.47;;;21.88;;
44536;SDS011;30245;51.966;6.292;2024-03-22T02:04:30;42.65;;;23.92;;
44536;SDS011;30245;51.966;6.292;2024-03-22T02:06:56;36.67;;;21.73;;
44536;SDS011;30245;51.966;6.292;2024-03-22T02:09:21;38.03;;;23.10;;
44536;SDS011;30245;51.966;6.292;2024-03-22T02:11:47;46.60;;;25.55;;
44536;SDS011;30245;51.966;6.292;2024-03-22T02:14:13;37.67;;;23.15;;
44536;SDS011;30245;51.966;6.292;2024-03-22T02:16:41;38.83;;;23.00;;
44536;SDS011;30245;51.966;6.292;2024-03-22T02:19:07;39.55;;;22.38;;
44536;SDS011;30245;51.966;6.292;2024-03-22T02:21:33;36.13;;;21.85;;
44536;SDS011;30245;51.966;6.292;2024-03-22T02:23:59;35.35;;;21.25;;
44536;SDS011;30245;51.966;6.292;2024-03-22T02:26:25;40.28;;;23.40;;
44536;SDS011;30245;51.966;6.292;2024-03-22T02:28:50;39.53;;;24.02;;
44536;SDS011;30245;51.966;6.292;2024-03-22T02:31:16;40.60;;;25.95;;
44536;SDS011;30245;51.966;6.292;2024-03-22T02:33:42;35.53;;;22.10;;
44536;SDS011;30245;51.966;6.292;2024-03-22T02:36:08;38.83;;;24.08;;
44536;SDS011;30245;51.966;6.292;2024-03-22T02:38:33;37.28;;;22.90;;
44536;SDS011;30245;51.966;6.292;2024-03-22T02:40:59;39.28;;;22.65;;
44536;SDS011;30245;51.966;6.292;2024-03-22T02:43:25;37.33;;;22.95;;
44536;SDS011;30245;51.966;6.292;2024-03-22T02:45:50;34.22;;;20.00;;
44536;SDS011;30245;51.966;6.292;2024-03-22T02:48:16;33.38;;;21.65;;
44536;SDS011;30245;51.966;6.292;2024-03-22T02:50:41;34.13;;;21.02;;
44536;SDS011;30245;51.966;6.292;2024-03-22T02:53:07;32.17;;;21.05;;
44536;SDS011;30245;51.966;6.292;2024-03-22T02:55:36;34.55;;;22.80;;
44536;SDS011;30245;51.966;6.292;2024-03-22T02:58:03;40.88;;;23.48;;
44536;SDS011;30245;51.966;6.292;2024-03-22T03:00:29;34.08;;;20.05;;
44536;SDS011;30245;51.966;6.292;2024-03-22T03:02:54;35.67;;;23.35;;
44536;SDS011;30245;51.966;6.292;2024-03-22T03:05:20;34.08;;;22.10;;
44536;SDS011;30245;51.966;6.292;2024-03-22T03:07:47;39.72;;;23.95;;
44536;SDS011;30245;51.966;6.292;2024-03-22T03:10:13;36.13;;;23.15;;
44536;SDS011;30245;51.966;6.292;2024-03-22T03:12:38;36.10;;;22.95;;
44536;SDS011;30245;51.966;6.292;2024-03-22T03:15:04;42.80;;;25.88;;
44536;SDS011;30245;51.966;6.292;2024-03-22T03:17:30;35.85;;;24.48;;
44536;SDS011;30245;51.966;6.292;2024-03-22T03:19:55;39.80;;;24.75;;
44536;SDS011;30245;51.966;6.292;2024-03-22T03:22:21;40.90;;;25.38;;
44536;SDS011;30245;51.966;6.292;2024-03-22T03:24:46;35.40;;;21.77;;
44536;SDS011;30245;51.966;6.292;2024-03-22T03:27:12;39.13;;;25.65;;
44536;SDS011;30245;51.966;6.292;2024-03-22T03:29:37;37.83;;;23.42;;
44536;SDS011;30245;51.966;6.292;2024-03-22T03:32:03;41.35;;;25.25;;
44536;SDS011;30245;51.966;6.292;2024-03-22T03:34:28;38.08;;;23.23;;
44536;SDS011;30245;51.966;6.292;2024-03-22T03:36:54;34.83;;;21.17;;
44536;SDS011;30245;51.966;6.292;2024-03-22T03:39:20;36.13;;;20.58;;
44536;SDS011;30245;51.966;6.292;2024-03-22T03:41:46;33.63;;;22.10;;
44536;SDS011;30245;51.966;6.292;2024-03-22T03:44:11;30.00;;;19.88;;
44536;SDS011;30245;51.966;6.292;2024-03-22T03:46:37;31.55;;;22.73;;
44536;SDS011;30245;51.966;6.292;2024-03-22T03:49:02;37.40;;;23.50;;
44536;SDS011;30245;51.966;6.292;2024-03-22T03:51:28;35.03;;;23.02;;
44536;SDS011;30245;51.966;6.292;2024-03-22T03:53:53;33.83;;;23.63;;
44536;SDS011;30245;51.966;6.292;2024-03-22T03:56:19;35.75;;;23.00;;
44536;SDS011;30245;51.966;6.292;2024-03-22T03:58:47;35.55;;;23.15;;
44536;SDS011;30245;51.966;6.292;2024-03-22T04:01:13;37.78;;;24.17;;
44536;SDS011;30245;51.966;6.292;2024-03-22T04:03:38;33.33;;;22.83;;
44536;SDS011;30245;51.966;6.292;2024-03-22T04:06:04;35.58;;;23.17;;
44536;SDS011;30245;51.966;6.292;2024-03-22T04:08:29;34.38;;;23.42;;
44536;SDS011;30245;51.966;6.292;2024-03-22T04:10:56;41.13;;;25.20;;
44536;SDS011;30245;51.966;6.292;2024-03-22T04:13:23;38.58;;;23.83;;
44536;SDS011;30245;51.966;6.292;2024-03-22T04:15:49;37.80;;;23.40;;
44536;SDS011;30245;51.966;6.292;2024-03-22T04:18:15;36.42;;;23.73;;
44536;SDS011;30245;51.966;6.292;2024-03-22T04:20:41;38.15;;;24.50;;
44536;SDS011;30245;51.966;6.292;2024-03-22T04:23:06;33.30;;;23.42;;
44536;SDS011;30245;51.966;6.292;2024-03-22T04:25:32;35.13;;;23.17;;
44536;SDS011;30245;51.966;6.292;2024-03-22T04:27:57;35.70;;;24.42;;
44536;SDS011;30245;51.966;6.292;2024-03-22T04:30:23;38.30;;;24.83;;
44536;SDS011;30245;51.966;6.292;2024-03-22T04:32:48;36.83;;;24.17;;
44536;SDS011;30245;51.966;6.292;2024-03-22T04:35:14;36.88;;;23.15;;
44536;SDS011;30245;51.966;6.292;2024-03-22T04:37:39;38.70;;;23.48;;
44536;SDS011;30245;51.966;6.292;2024-03-22T04:40:05;32.70;;;22.92;;
44536;SDS011;30245;51.966;6.292;2024-03-22T04:42:31;30.67;;;22.17;;
44536;SDS011;30245;51.966;6.292;2024-03-22T04:44:57;35.90;;;22.45;;
44536;SDS011;30245;51.966;6.292;2024-03-22T04:47:22;38.83;;;25.77;;
44536;SDS011;30245;51.966;6.292;2024-03-22T04:49:48;35.30;;;23.80;;
44536;SDS011;30245;51.966;6.292;2024-03-22T04:52:14;46.65;;;25.98;;
44536;SDS011;30245;51.966;6.292;2024-03-22T04:54:39;32.78;;;23.98;;
44536;SDS011;30245;51.966;6.292;2024-03-22T04:57:05;36.95;;;24.25;;
44536;SDS011;30245;51.966;6.292;2024-03-22T04:59:30;35.67;;;26.35;;
44536;SDS011;30245;51.966;6.292;2024-03-22T05:01:56;36.13;;;23.77;;
44536;SDS011;30245;51.966;6.292;2024-03-22T05:04:21;31.75;;;21.70;;
44536;SDS011;30245;51.966;6.292;2024-03-22T05:06:47;36.60;;;25.42;;
44536;SDS011;30245;51.966;6.292;2024-03-22T05:09:12;32.53;;;23.48;;
44536;SDS011;30245;51.966;6.292;2024-03-22T05:11:38;38.33;;;24.45;;
44536;SDS011;30245;51.966;6.292;2024-03-22T05:14:03;33.70;;;25.25;;
44536;SDS011;30245;51.966;6.292;2024-03-22T05:16:29;34.50;;;24.00;;
44536;SDS011;30245;51.966;6.292;2024-03-22T05:18:55;35.28;;;24.48;;
44536;SDS011;30245;51.966;6.292;2024-03-22T05:21:20;27.25;;;21.13;;
44536;SDS011;30245;51.966;6.292;2024-03-22T05:23:46;33.97;;;21.42;;
44536;SDS011;30245;51.966;6.292;2024-03-22T05:26:11;34.85;;;23.00;;
44536;SDS011;30245;51.966;6.292;2024-03-22T05:28:37;32.08;;;23.02;;
44536;SDS011;30245;51.966;6.292;2024-03-22T05:31:03;32.92;;;23.00;;
44536;SDS011;30245;51.966;6.292;2024-03-22T05:33:28;29.10;;;21.83;;
44536;SDS011;30245;51.966;6.292;2024-03-22T05:35:54;37.63;;;24.77;;
44536;SDS011;30245;51.966;6.292;2024-03-22T05:38:20;35.13;;;22.88;;
44536;SDS011;30245;51.966;6.292;2024-03-22T05:40:45;27.23;;;20.10;;
44536;SDS011;30245;51.966;6.292;2024-03-22T05:43:12;29.88;;;21.30;;
44536;SDS011;30245;51.966;6.292;2024-03-22T05:45:38;32.03;;;21.60;;
44536;SDS011;30245;51.966;6.292;2024-03-22T05:48:04;29.35;;;20.55;;
44536;SDS011;30245;51.966;6.292;2024-03-22T05:50:30;35.85;;;23.50;;
44536;SDS011;30245;51.966;6.292;2024-03-22T05:52:55;33.03;;;22.52;;
44536;SDS011;30245;51.966;6.292;2024-03-22T05:55:21;31.30;;;21.55;;
44536;SDS011;30245;51.966;6.292;2024-03-22T05:57:47;34.92;;;23.63;;
44536;SDS011;30245;51.966;6.292;2024-03-22T06:00:12;37.67;;;24.08;;
44536;SDS011;30245;51.966;6.292;2024-03-22T06:02:38;33.65;;;23.98;;
44536;SDS011;30245;51.966;6.292;2024-03-22T06:05:04;33.80;;;23.15;;
44536;SDS011;30245;51.966;6.292;2024-03-22T06:07:30;30.40;;;22.85;;
44536;SDS011;30245;51.966;6.292;2024-03-22T06:10:03;35.10;;;24.65;;
44536;SDS011;30245;51.966;6.292;2024-03-22T06:12:29;31.00;;;20.98;;
44536;SDS011;30245;51.966;6.292;2024-03-22T06:14:55;28.85;;;20.45;;
44536;SDS011;30245;51.966;6.292;2024-03-22T06:17:21;28.55;;;18.20;;
44536;SDS011;30245;51.966;6.292;2024-03-22T06:19:47;31.67;;;20.05;;
44536;SDS011;30245;51.966;6.292;2024-03-22T06:22:12;28.33;;;19.35;;
44536;SDS011;30245;51.966;6.292;2024-03-22T06:24:38;26.63;;;19.70;;
44536;SDS011;30245;51.966;6.292;2024-03-22T06:27:03;25.33;;;18.95;;
44536;SDS011;30245;51.966;6.292;2024-03-22T06:29:29;27.30;;;18.98;;
44536;SDS011;30245;51.966;6.292;2024-03-22T06:31:55;26.65;;;18.75;;
44536;SDS011;30245;51.966;6.292;2024-03-22T06:34:20;27.70;;;18.85;;
44536;SDS011;30245;51.966;6.292;2024-03-22T06:36:46;21.77;;;18.23;;
44536;SDS011;30245;51.966;6.292;2024-03-22T06:39:12;27.80;;;18.35;;
44536;SDS011;30245;51.966;6.292;2024-03-22T06:41:38;23.88;;;15.88;;
44536;SDS011;30245;51.966;6.292;2024-03-22T06:44:03;24.23;;;17.23;;
44536;SDS011;30245;51.966;6.292;2024-03-22T06:46:29;24.58;;;17.42;;
44536;SDS011;30245;51.966;6.292;2024-03-22T06:48:55;21.50;;;15.18;;
44536;SDS011;30245;51.966;6.292;2024-03-22T06:51:21;19.15;;;14.18;;
44536;SDS011;30245;51.966;6.292;2024-03-22T06:53:46;28.27;;;15.32;;
44536;SDS011;30245;51.966;6.292;2024-03-22T06:56:12;19.70;;;14.07;;
44536;SDS011;30245;51.966;6.292;2024-03-22T06:58:38;29.10;;;15.10;;
44536;SDS011;30245;51.966;6.292;2024-03-22T07:01:04;24.40;;;15.48;;
44536;SDS011;30245;51.966;6.292;2024-03-22T07:03:30;21.38;;;14.38;;
44536;SDS011;30245;51.966;6.292;2024-03-22T07:05:55;18.80;;;13.38;;
44536;SDS011;30245;51.966;6.292;2024-03-22T07:08:22;16.20;;;11.88;;
44536;SDS011;30245;51.966;6.292;2024-03-22T07:10:48;20.48;;;14.38;;
44536;SDS011;30245;51.966;6.292;2024-03-22T07:13:14;19.88;;;12.30;;
44536;SDS011;30245;51.966;6.292;2024-03-22T07:15:40;17.50;;;11.73;;
44536;SDS011;30245;51.966;6.292;2024-03-22T07:18:05;20.75;;;13.30;;
44536;SDS011;30245;51.966;6.292;2024-03-22T07:20:31;18.30;;;12.20;;
44536;SDS011;30245;51.966;6.292;2024-03-22T07:22:56;18.20;;;13.38;;
44536;SDS011;30245;51.966;6.292;2024-03-22T07:25:22;20.27;;;13.82;;
44536;SDS011;30245;51.966;6.292;2024-03-22T07:27:48;16.55;;;11.45;;
44536;SDS011;30245;51.966;6.292;2024-03-22T07:30:14;18.75;;;12.15;;
44536;SDS011;30245;51.966;6.292;2024-03-22T07:32:40;19.27;;;12.90;;
44536;SDS011;30245;51.966;6.292;2024-03-22T07:35:05;18.33;;;12.18;;
44536;SDS011;30245;51.966;6.292;2024-03-22T07:37:32;15.15;;;11.43;;
44536;SDS011;30245;51.966;6.292;2024-03-22T07:39:59;15.38;;;10.52;;
44536;SDS011;30245;51.966;6.292;2024-03-22T07:42:24;16.63;;;12.52;;
44536;SDS011;30245;51.966;6.292;2024-03-22T07:44:50;14.38;;;11.35;;
44536;SDS011;30245;51.966;6.292;2024-03-22T07:47:16;20.52;;;12.45;;
44536;SDS011;30245;51.966;6.292;2024-03-22T07:49:41;14.60;;;11.73;;
44536;SDS011;30245;51.966;6.292;2024-03-22T07:52:07;18.13;;;11.70;;
44536;SDS011;30245;51.966;6.292;2024-03-22T07:54:32;20.25;;;13.82;;
44536;SDS011;30245;51.966;6.292;2024-03-22T07:56:58;20.15;;;12.57;;
44536;SDS011;30245;51.966;6.292;2024-03-22T07:59:24;16.90;;;12.18;;
44536;SDS011;30245;51.966;6.292;2024-03-22T08:01:50;16.67;;;11.75;;
44536;SDS011;30245;51.966;6.292;2024-03-22T08:04:15;19.50;;;10.82;;
44536;SDS011;30245;51.966;6.292;2024-03-22T08:06:41;17.85;;;12.05;;
44536;SDS011;30245;51.966;6.292;2024-03-22T08:09:06;16.83;;;12.98;;
44536;SDS011;30245;51.966;6.292;2024-03-22T08:11:32;18.45;;;13.15;;
44536;SDS011;30245;51.966;6.292;2024-03-22T08:13:58;13.80;;;11.40;;
44536;SDS011;30245;51.966;6.292;2024-03-22T08:16:28;15.23;;;10.88;;
44536;SDS011;30245;51.966;6.292;2024-03-22T08:18:55;18.45;;;12.98;;
44536;SDS011;30245;51.966;6.292;2024-03-22T08:21:21;24.33;;;13.98;;
44536;SDS011;30245;51.966;6.292;2024-03-22T08:23:47;19.10;;;13.65;;
44536;SDS011;30245;51.966;6.292;2024-03-22T08:26:13;18.27;;;13.50;;
44536;SDS011;30245;51.966;6.292;2024-03-22T08:28:39;16.15;;;12.70;;
44536;SDS011;30245;51.966;6.292;2024-03-22T08:31:04;20.35;;;14.90;;
44536;SDS011;30245;51.966;6.292;2024-03-22T08:33:30;21.52;;;12.55;;
44536;SDS011;30245;51.966;6.292;2024-03-22T08:35:56;19.88;;;13.05;;
44536;SDS011;30245;51.966;6.292;2024-03-22T08:38:22;21.85;;;13.25;;
44536;SDS011;30245;51.966;6.292;2024-03-22T08:40:49;19.48;;;14.95;;
44536;SDS011;30245;51.966;6.292;2024-03-22T08:43:15;18.98;;;12.95;;
44536;SDS011;30245;51.966;6.292;2024-03-22T08:45:41;18.25;;;13.80;;
44536;SDS011;30245;51.966;6.292;2024-03-22T08:48:07;22.15;;;14.65;;
44536;SDS011;30245;51.966;6.292;2024-03-22T08:50:32;21.25;;;14.05;;
44536;SDS011;30245;51.966;6.292;2024-03-22T08:52:58;17.58;;;13.00;;
44536;SDS011;30245;51.966;6.292;2024-03-22T08:55:24;25.67;;;16.40;;
44536;SDS011;30245;51.966;6.292;2024-03-22T08:57:49;24.25;;;16.52;;
44536;SDS011;30245;51.966;6.292;2024-03-22T09:00:16;24.17;;;13.65;;
44536;SDS011;30245;51.966;6.292;2024-03-22T09:02:42;20.33;;;14.90;;
44536;SDS011;30245;51.966;6.292;2024-03-22T09:05:08;22.80;;;15.35;;
44536;SDS011;30245;51.966;6.292;2024-03-22T09:07:33;16.20;;;13.63;;
44536;SDS011;30245;51.966;6.292;2024-03-22T09:09:59;21.17;;;14.73;;
44536;SDS011;30245;51.966;6.292;2024-03-22T09:12:24;16.13;;;12.93;;
44536;SDS011;30245;51.966;6.292;2024-03-22T09:14:50;19.45;;;15.40;;
44536;SDS011;30245;51.966;6.292;2024-03-22T09:17:16;21.48;;;14.95;;
44536;SDS011;30245;51.966;6.292;2024-03-22T09:19:41;30.40;;;16.55;;
44536;SDS011;30245;51.966;6.292;2024-03-22T09:22:07;22.45;;;16.35;;
44536;SDS011;30245;51.966;6.292;2024-03-22T09:24:32;22.63;;;16.98;;
44536;SDS011;30245;51.966;6.292;2024-03-22T09:26:58;23.80;;;18.08;;
44536;SDS011;30245;51.966;6.292;2024-03-22T09:29:24;23.77;;;17.00;;
44536;SDS011;30245;51.966;6.292;2024-03-22T09:31:49;20.92;;;16.15;;
44536;SDS011;30245;51.966;6.292;2024-03-22T09:34:18;20.27;;;15.15;;
44536;SDS011;30245;51.966;6.292;2024-03-22T09:36:44;20.70;;;14.27;;
44536;SDS011;30245;51.966;6.292;2024-03-22T09:39:10;25.13;;;16.75;;
44536;SDS011;30245;51.966;6.292;2024-03-22T09:41:38;26.58;;;17.27;;
44536;SDS011;30245;51.966;6.292;2024-03-22T09:44:08;24.40;;;17.55;;
44536;SDS011;30245;51.966;6.292;2024-03-22T09:46:38;23.38;;;17.20;;
44536;SDS011;30245;51.966;6.292;2024-03-22T09:49:07;24.92;;;16.13;;
44536;SDS011;30245;51.966;6.292;2024-03-22T09:51:37;21.45;;;15.82;;
44536;SDS011;30245;51.966;6.292;2024-03-22T09:54:03;23.23;;;16.92;;
44536;SDS011;30245;51.966;6.292;2024-03-22T09:56:30;28.42;;;18.38;;
44536;SDS011;30245;51.966;6.292;2024-03-22T09:58:59;19.38;;;15.07;;
44536;SDS011;30245;51.966;6.292;2024-03-22T10:01:24;26.55;;;18.95;;
44536;SDS011;30245;51.966;6.292;2024-03-22T10:03:51;22.00;;;15.45;;
44536;SDS011;30245;51.966;6.292;2024-03-22T10:06:17;24.00;;;17.52;;
44536;SDS011;30245;51.966;6.292;2024-03-22T10:08:43;26.27;;;17.48;;
44536;SDS011;30245;51.966;6.292;2024-03-22T10:11:09;22.33;;;16.75;;
44536;SDS011;30245;51.966;6.292;2024-03-22T10:13:35;21.98;;;16.38;;
44536;SDS011;30245;51.966;6.292;2024-03-22T10:16:01;22.98;;;14.77;;
44536;SDS011;30245;51.966;6.292;2024-03-22T10:18:27;23.33;;;16.92;;
44536;SDS011;30245;51.966;6.292;2024-03-22T10:21:26;24.25;;;16.80;;
44536;SDS011;30245;51.966;6.292;2024-03-22T10:23:44;26.48;;;19.08;;
44536;SDS011;30245;51.966;6.292;2024-03-22T10:26:12;27.45;;;16.83;;
44536;SDS011;30245;51.966;6.292;2024-03-22T10:28:43;25.90;;;18.35;;
44536;SDS011;30245;51.966;6.292;2024-03-22T10:31:10;26.20;;;17.83;;
44536;SDS011;30245;51.966;6.292;2024-03-22T10:33:42;25.63;;;16.35;;
44536;SDS011;30245;51.966;6.292;2024-03-22T10:36:09;25.52;;;17.83;;
44536;SDS011;30245;51.966;6.292;2024-03-22T10:38:38;19.88;;;15.20;;
44536;SDS011;30245;51.966;6.292;2024-03-22T10:41:05;21.33;;;15.70;;
44536;SDS011;30245;51.966;6.292;2024-03-22T10:43:31;20.52;;;16.27;;
44536;SDS011;30245;51.966;6.292;2024-03-22T10:46:00;20.25;;;14.50;;
44536;SDS011;30245;51.966;6.292;2024-03-22T10:48:29;19.92;;;15.35;;
44536;SDS011;30245;51.966;6.292;2024-03-22T10:50:58;19.40;;;13.95;;
44536;SDS011;30245;51.966;6.292;2024-03-22T10:53:26;19.38;;;13.65;;
44536;SDS011;30245;51.966;6.292;2024-03-22T10:55:53;20.10;;;13.63;;
44536;SDS011;30245;51.966;6.292;2024-03-22T10:58:21;18.77;;;13.23;;
44536;SDS011;30245;51.966;6.292;2024-03-22T11:00:47;19.15;;;14.05;;
44536;SDS011;30245;51.966;6.292;2024-03-22T11:03:16;19.48;;;13.88;;
44536;SDS011;30245;51.966;6.292;2024-03-22T11:05:44;19.63;;;14.90;;
44536;SDS011;30245;51.966;6.292;2024-03-22T11:08:23;19.40;;;14.13;;
44536;SDS011;30245;51.966;6.292;2024-03-22T11:10:49;22.25;;;14.15;;
44536;SDS011;30245;51.966;6.292;2024-03-22T11:13:16;20.35;;;13.98;;
44536;SDS011;30245;51.966;6.292;2024-03-22T11:15:42;20.85;;;13.65;;
44536;SDS011;30245;51.966;6.292;2024-03-22T11:18:08;19.60;;;14.40;;
44536;SDS011;30245;51.966;6.292;2024-03-22T11:20:37;17.98;;;13.45;;
44536;SDS011;30245;51.966;6.292;2024-03-22T11:25:28;15.80;;;11.43;;
44536;SDS011;30245;51.966;6.292;2024-03-22T11:27:57;21.73;;;14.38;;
44536;SDS011;30245;51.966;6.292;2024-03-22T11:30:25;23.23;;;15.73;;
44536;SDS011;30245;51.966;6.292;2024-03-22T11:32:52;19.83;;;13.30;;
44536;SDS011;30245;51.966;6.292;2024-03-22T11:35:17;20.98;;;14.55;;
44536;SDS011;30245;51.966;6.292;2024-03-22T11:37:43;20.77;;;14.90;;
44536;SDS011;30245;51.966;6.292;2024-03-22T11:40:09;20.73;;;15.32;;
44536;SDS011;30245;51.966;6.292;2024-03-22T11:42:35;22.65;;;16.02;;
44536;SDS011;30245;51.966;6.292;2024-03-22T11:45:02;22.35;;;15.50;;
44536;SDS011;30245;51.966;6.292;2024-03-22T11:47:28;25.85;;;14.98;;
44536;SDS011;30245;51.966;6.292;2024-03-22T11:49:54;21.48;;;15.15;;
44536;SDS011;30245;51.966;6.292;2024-03-22T11:52:24;23.65;;;15.90;;
44536;SDS011;30245;51.966;6.292;2024-03-22T11:54:55;15.38;;;12.75;;
44536;SDS011;30245;51.966;6.292;2024-03-22T11:57:22;18.30;;;14.48;;
44536;SDS011;30245;51.966;6.292;2024-03-22T11:59:48;15.55;;;11.30;;
44536;SDS011;30245;51.966;6.292;2024-03-22T12:02:15;16.70;;;12.82;;
44536;SDS011;30245;51.966;6.292;2024-03-22T12:04:47;15.95;;;11.40;;
44536;SDS011;30245;51.966;6.292;2024-03-22T12:07:12;18.38;;;13.32;;
44536;SDS011;30245;51.966;6.292;2024-03-22T12:09:39;14.35;;;11.27;;
44536;SDS011;30245;51.966;6.292;2024-03-22T12:12:12;14.27;;;10.15;;
44536;SDS011;30245;51.966;6.292;2024-03-22T12:14:38;15.18;;;12.35;;
44536;SDS011;30245;51.966;6.292;2024-03-22T12:17:04;13.23;;;10.55;;
44536;SDS011;30245;51.966;6.292;2024-03-22T12:19:31;13.40;;;10.98;;
44536;SDS011;30245;51.966;6.292;2024-03-22T12:21:57;12.85;;;10.48;;
44536;SDS011;30245;51.966;6.292;2024-03-22T12:24:23;11.00;;;9.35;;
44536;SDS011;30245;51.966;6.292;2024-03-22T12:26:49;10.15;;;8.38;;
44536;SDS011;30245;51.966;6.292;2024-03-22T12:29:15;12.45;;;10.25;;
44536;SDS011;30245;51.966;6.292;2024-03-22T12:31:41;9.55;;;8.48;;
44536;SDS011;30245;51.966;6.292;2024-03-22T12:34:07;9.35;;;7.75;;
44536;SDS011;30245;51.966;6.292;2024-03-22T12:36:33;8.45;;;6.50;;
44536;SDS011;30245;51.966;6.292;2024-03-22T12:38:58;8.13;;;7.32;;
44536;SDS011;30245;51.966;6.292;2024-03-22T12:41:24;9.73;;;8.73;;
44536;SDS011;30245;51.966;6.292;2024-03-22T12:43:50;9.25;;;6.97;;
44536;SDS011;30245;51.966;6.292;2024-03-22T12:46:16;7.85;;;6.75;;
44536;SDS011;30245;51.966;6.292;2024-03-22T12:48:42;9.80;;;5.55;;
44536;SDS011;30245;51.966;6.292;2024-03-22T12:51:08;8.25;;;6.28;;
44536;SDS011;30245;51.966;6.292;2024-03-22T12:53:33;6.18;;;5.53;;
44536;SDS011;30245;51.966;6.292;2024-03-22T12:55:59;5.72;;;5.20;;
44536;SDS011;30245;51.966;6.292;2024-03-22T12:58:24;6.90;;;5.20;;
44536;SDS011;30245;51.966;6.292;2024-03-22T13:00:50;6.13;;;5.10;;
44536;SDS011;30245;51.966;6.292;2024-03-22T13:03:15;3.45;;;3.15;;
44536;SDS011;30245;51.966;6.292;2024-03-22T13:05:41;4.50;;;3.75;;
44536;SDS011;30245;51.966;6.292;2024-03-22T13:08:07;5.45;;;4.88;;
44536;SDS011;30245;51.966;6.292;2024-03-22T13:10:33;6.45;;;4.07;;
44536;SDS011;30245;51.966;6.292;2024-03-22T13:12:58;3.95;;;3.55;;
44536;SDS011;30245;51.966;6.292;2024-03-22T13:15:24;6.03;;;5.22;;
44536;SDS011;30245;51.966;6.292;2024-03-22T13:17:50;4.10;;;3.60;;
44536;SDS011;30245;51.966;6.292;2024-03-22T13:20:17;4.72;;;4.32;;
44536;SDS011;30245;51.966;6.292;2024-03-22T13:22:43;3.63;;;3.33;;
44536;SDS011;30245;51.966;6.292;2024-03-22T13:25:09;3.45;;;2.80;;
44536;SDS011;30245;51.966;6.292;2024-03-22T13:27:36;3.88;;;2.33;;
44536;SDS011;30245;51.966;6.292;2024-03-22T13:30:04;5.18;;;3.17;;
44536;SDS011;30245;51.966;6.292;2024-03-22T13:32:34;3.45;;;2.45;;
44536;SDS011;30245;51.966;6.292;2024-03-22T13:35:04;3.03;;;1.98;;
44536;SDS011;30245;51.966;6.292;2024-03-22T13:37:30;3.20;;;2.78;;
44536;SDS011;30245;51.966;6.292;2024-03-22T13:39:56;3.45;;;2.47;;
44536;SDS011;30245;51.966;6.292;2024-03-22T13:42:22;2.13;;;1.92;;
44536;SDS011;30245;51.966;6.292;2024-03-22T13:44:47;2.45;;;2.25;;
44536;SDS011;30245;51.966;6.292;2024-03-22T13:47:13;2.33;;;2.13;;
44536;SDS011;30245;51.966;6.292;2024-03-22T13:49:38;1.85;;;1.73;;
44536;SDS011;30245;51.966;6.292;2024-03-22T13:52:08;2.13;;;1.85;;
44536;SDS011;30245;51.966;6.292;2024-03-22T13:54:34;2.65;;;1.63;;
44536;SDS011;30245;51.966;6.292;2024-03-22T13:56:59;3.15;;;2.15;;
44536;SDS011;30245;51.966;6.292;2024-03-22T13:59:25;2.28;;;2.00;;
44536;SDS011;30245;51.966;6.292;2024-03-22T14:01:51;2.70;;;1.40;;
44536;SDS011;30245;51.966;6.292;2024-03-22T14:04:17;2.25;;;1.58;;
44536;SDS011;30245;51.966;6.292;2024-03-22T14:06:44;2.40;;;1.45;;
44536;SDS011;30245;51.966;6.292;2024-03-22T14:09:10;2.42;;;1.25;;
44536;SDS011;30245;51.966;6.292;2024-03-22T14:11:38;1.60;;;1.20;;
44536;SDS011;30245;51.966;6.292;2024-03-22T14:14:04;1.73;;;1.10;;
44536;SDS011;30245;51.966;6.292;2024-03-22T14:16:30;1.42;;;1.10;;
44536;SDS011;30245;51.966;6.292;2024-03-22T14:18:56;2.35;;;1.60;;
44536;SDS011;30245;51.966;6.292;2024-03-22T14:21:21;2.25;;;1.38;;